TimeADT,TemperatureF,Dew PointF,Humidity,Sea Level PressureIn,VisibilityMPH,Wind Direction,Wind SpeedMPH,Gust SpeedMPH,PrecipitationIn,Events,Conditions,WindDirDegrees,DateUTC
12:00 AM,71.6,60.8,69,30.09,15.0,SW,9.2,-,N/A,,Partly Cloudy,230,2013-07-15 03:00:00
1:00 AM,71.6,60.8,69,30.09,15.0,WSW,11.5,-,N/A,,Partly Cloudy,240,2013-07-15 04:00:00
2:00 AM,69.8,60.8,73,30.07,15.0,SW,10.4,-,N/A,,Partly Cloudy,220,2013-07-15 05:00:00
3:00 AM,69,61,69,30.06,15,Calm,Calm,,,,Scattered Clouds,,2013-07-15 06:00:00
3:00 AM,69.8,60.8,73,30.06,15.0,SW,10.4,-,N/A,,Partly Cloudy,230,2013-07-15 06:00:00
4:00 AM,68.0,60.8,78,30.05,15.0,WSW,10.4,-,N/A,,Partly Cloudy,240,2013-07-15 07:00:00
5:00 AM,66.2,60.8,83,30.05,15.0,SW,3.5,-,N/A,,Partly Cloudy,220,2013-07-15 08:00:00
6:00 AM,66.2,60.8,83,30.04,15.0,WSW,5.8,-,N/A,,Scattered Clouds,240,2013-07-15 09:00:00
7:00 AM,68.0,60.8,78,30.04,15.0,WSW,5.8,-,N/A,,Mostly Cloudy,250,2013-07-15 10:00:00
8:00 AM,71.6,62.6,73,30.05,15.0,WSW,4.6,-,N/A,,Partly Cloudy,240,2013-07-15 11:00:00
9:00 AM,76,63,55,30.05,15,WSW,6.9,,,,Clear,240,2013-07-15 12:00:00
9:00 AM,77.0,62.6,61,30.04,15.0,WSW,6.9,-,N/A,,Partly Cloudy,240,2013-07-15 12:00:00
10:00 AM,80.6,64.4,58,30.04,15.0,West,6.9,-,N/A,,Scattered Clouds,260,2013-07-15 13:00:00
11:00 AM,84.2,62.6,48,30.03,15.0,SW,8.1,-,N/A,,Scattered Clouds,230,2013-07-15 14:00:00
12:00 PM,86.0,62.6,45,30.02,15.0,WSW,8.1,-,N/A,,Mostly Cloudy,250,2013-07-15 15:00:00
1:00 PM,89.6,62.6,40,30.01,15.0,West,8.1,-,N/A,,Mostly Cloudy,270,2013-07-15 16:00:00
2:00 PM,87.8,64.4,46,29.99,15.0,SW,11.5,-,N/A,,Scattered Clouds,230,2013-07-15 17:00:00
3:00 PM,89,60,27,29.98,15,West,11.5,,,,Clear,260,2013-07-15 18:00:00
3:00 PM,89.6,59.0,36,29.98,15.0,West,13.8,-,N/A,,Partly Cloudy,260,2013-07-15 18:00:00
4:00 PM,89.6,60.8,38,29.97,15.0,WSW,11.5,18.4,N/A,,Partly Cloudy,250,2013-07-15 19:00:00
5:00 PM,89.6,60.8,38,29.96,15.0,West,11.5,18.4,N/A,,Partly Cloudy,270,2013-07-15 20:00:00
6:00 PM,89.6,62.6,40,29.95,15.0,SW,11.5,-,N/A,,Partly Cloudy,230,2013-07-15 21:00:00
7:00 PM,86.0,64.4,48,29.95,15.0,WSW,9.2,-,N/A,,Partly Cloudy,250,2013-07-15 22:00:00
8:00 PM,82.4,64.4,54,29.95,15.0,WSW,8.1,-,N/A,,Partly Cloudy,240,2013-07-15 23:00:00
9:00 PM,80,64,49,29.96,15,WSW,8.1,,,,Partly Cloudy,250,2013-07-16 00:00:00
9:00 PM,78.8,64.4,61,29.96,15.0,WSW,8.1,-,N/A,,Scattered Clouds,250,2013-07-16 00:00:00
10:00 PM,77.0,64.4,65,29.99,15.0,NNW,5.8,-,N/A,,Scattered Clouds,340,2013-07-16 01:00:00
11:00 PM,75.2,62.6,65,30.00,15.0,NE,10.4,-,N/A,,Mostly Cloudy,40,2013-07-16 02:00:00